John James Audubon — WDE8037 — position and weather

sailwx.info

Track history (hours):
 
Tides and Currents Weather Stations Pressure Air Temp Water Temp Dewpoint Dewpoint Depression Visibility Wind Speed Wind Dir Waves Ship Positions

John James Audubon

Owner: Statue Cruises, Jersey City, NJ. More information available from US FCC via Universal Licensing System and Coast Guard Vessel Documentation Center.

Last reported at 2014-Dec-21 17:33 UTC. Time now 2014-Dec-23 02:57 UTC.
Position N 40°44' W 074°01'.

Length 37 m.

Type: Ship. MMSI: 367400770.

Date/timePositionNaut miles runAvg speedWind from/ knotsBaromVisibWave heightAir tempDewpointWater temp
2014-Dec-21 17:33N 40°44' W 074°01'2 1.3
2014-Dec-21 16:19N 40°42' W 074°00'2 2.5
2014-Dec-21 15:33N 40°41' W 074°02'2 1.9
2014-Dec-21 14:33N 40°42' W 074°00'2 0.1
2014-Dec-20 22:33N 40°44' W 074°01'3 3.0
2014-Dec-20 21:33N 40°41' W 074°03'2 2.1
2014-Dec-20 20:33N 40°42' W 074°00'0 0.0
2014-Dec-20 19:33N 40°42' W 074°00'1 1.3
2014-Dec-20 18:33N 40°41' W 074°02'1 1.3
2014-Dec-20 17:33N 40°42' W 074°00'0 0.0
2014-Dec-20 16:33N 40°42' W 074°00'2 2.0
2014-Dec-20 15:33N 40°41' W 074°02'2 1.8
2014-Dec-20 14:33N 40°42' W 074°00'2 0.2
2014-Dec-20 05:33N 40°44' W 074°01'2 1.6
2014-Dec-20 04:33N 40°42' W 073°60'2 2.3
2014-Dec-20 03:33N 40°45' W 074°01'4 3.7
2014-Dec-20 02:33N 40°41' W 074°03'2 2.2
2014-Dec-20 01:33N 40°42' W 074°00'1 0.6
2014-Dec-20 00:33N 40°42' W 074°00'2 1.7
2014-Dec-19 23:33N 40°41' W 074°03'2 2.1
2014-Dec-19 22:33N 40°42' W 074°00'2 1.8
2014-Dec-19 21:33N 40°41' W 074°02'2 1.8
2014-Dec-19 20:33N 40°42' W 074°00'0 0.0
2014-Dec-19 19:33N 40°42' W 074°00'1 0.8
2014-Dec-19 18:33N 40°42' W 074°01'1 0.8
2014-Dec-19 17:33N 40°42' W 074°00'0 0.0
2014-Dec-19 16:33N 40°42' W 074°00'2 1.8
2014-Dec-19 15:33N 40°41' W 074°02'2 1.8
2014-Dec-19 14:33N 40°42' W 074°00'2 0.1
2014-Dec-18 22:33N 40°44' W 074°01'3 2.6
2014-Dec-18 21:33N 40°41' W 074°02'2 1.6
2014-Dec-18 20:33N 40°42' W 074°00'0 0.0
2014-Dec-18 19:33N 40°42' W 074°00'2 1.7
2014-Dec-18 18:33N 40°41' W 074°02'2 1.8
2014-Dec-18 17:33N 40°42' W 074°00'0 0.0
2014-Dec-18 16:33N 40°42' W 074°00'2 1.6
2014-Dec-18 15:33N 40°41' W 074°02'2 1.6
2014-Dec-18 14:33N 40°42' W 074°00'2 0.1
2014-Dec-17 22:33N 40°44' W 074°01'3 2.9
2014-Dec-17 21:33N 40°41' W 074°03'2 2.0
2014-Dec-17 20:34N 40°42' W 074°00'0 0.0
2014-Dec-17 19:33N 40°42' W 074°00'1 1.4
2014-Dec-17 18:33N 40°42' W 074°02'1 1.3
2014-Dec-17 17:33N 40°42' W 074°00'0 0.0
2014-Dec-17 16:34N 40°42' W 074°00'2 1.9
2014-Dec-17 15:34N 40°41' W 074°02'2 1.7
2014-Dec-17 14:33N 40°42' W 074°00'2 1.8
2014-Dec-17 13:34N 40°44' W 074°01'0 0.0
2014-Dec-16 22:33N 40°44' W 074°01'3 2.9
2014-Dec-16 21:34N 40°41' W 074°03'2 2.1
2014-Dec-16 20:34N 40°42' W 074°00'0 0.0
2014-Dec-16 19:34N 40°42' W 074°00'2 1.9
2014-Dec-16 18:33N 40°41' W 074°02'2 2.0
2014-Dec-16 17:34N 40°42' W 074°00'0 0.0
2014-Dec-16 16:34N 40°42' W 074°00'2 1.8
2014-Dec-16 15:34N 40°41' W 074°02'2 1.8
2014-Dec-16 14:33N 40°42' W 074°00'2 0.1
2014-Dec-15 22:33N 40°44' W 074°01'3 2.6
2014-Dec-15 21:33N 40°41' W 074°02'2 1.6
2014-Dec-15 20:33N 40°42' W 074°00'0 0.0
2014-Dec-15 19:33N 40°42' W 074°00'2 2.1
2014-Dec-15 18:33N 40°41' W 074°03'2 2.1
2014-Dec-15 17:33N 40°42' W 074°00'0 0.0
2014-Dec-15 16:33N 40°42' W 074°00'1 1.0
2014-Dec-15 15:33N 40°42' W 074°01'1 1.0
2014-Dec-15 14:33N 40°42' W 074°00'2 1.6
2014-Dec-15 13:33N 40°44' W 074°01'0 0.0
2014-Dec-14 22:33N 40°44' W 074°01'2 2.5
2014-Dec-14 21:33N 40°41' W 074°02'1 1.4
2014-Dec-14 20:33N 40°42' W 074°00'0 0.0
2014-Dec-14 19:33N 40°42' W 074°00'2 1.7
2014-Dec-14 18:33N 40°41' W 074°02'2 1.7
2014-Dec-14 17:33N 40°42' W 074°00'0 0.0
2014-Dec-14 16:33N 40°42' W 074°00'2 2.0
2014-Dec-14 15:33N 40°41' W 074°03'2 2.0
2014-Dec-14 14:33N 40°42' W 074°00'2 0.2
2014-Dec-14 05:33N 40°44' W 074°01'2 1.6
2014-Dec-14 04:33N 40°42' W 073°60'3 3.2
2014-Dec-14 03:33N 40°46' W 074°01'5 4.7
2014-Dec-14 02:33N 40°41' W 074°03'2 2.2
2014-Dec-14 01:33N 40°42' W 074°00'1 0.6
2014-Dec-14 00:33N 40°42' W 073°60'3 2.8
2014-Dec-13 23:33N 40°41' W 074°03'2 2.2
2014-Dec-13 22:33N 40°42' W 074°00'1 1.3
2014-Dec-13 21:33N 40°42' W 074°02'1 1.3
2014-Dec-13 20:32N 40°42' W 074°00'0 0.0
2014-Dec-13 19:33N 40°42' W 074°00'2 2.1
2014-Dec-13 18:34N 40°41' W 074°03'2 2.1
2014-Dec-13 17:33N 40°42' W 074°00'0 0.0
2014-Dec-13 16:33N 40°42' W 074°00'2 2.1
2014-Dec-13 15:33N 40°41' W 074°02'2 2.1
2014-Dec-13 14:34N 40°42' W 074°00'  
Track history (hours):
 
Tides and Currents Weather Stations Pressure Air Temp Water Temp Dewpoint Dewpoint Depression Visibility Wind Speed Wind Dir Waves Ship Positions

John James Audubon

Owner: Statue Cruises, Jersey City, NJ. More information available from US FCC via Universal Licensing System and Coast Guard Vessel Documentation Center.

Last reported at 2014-Dec-21 17:33 UTC. Time now 2014-Dec-23 02:57 UTC.
Position N 40°44' W 074°01'.

Length 37 m.

Type: Ship. MMSI: 367400770.

Date/timePositionNaut miles runAvg speedWind from/ knotsBaromVisibWave heightAir tempDewpointWater temp
2014-Dec-21 17:33N 40°44' W 074°01'2 1.3
2014-Dec-21 16:19N 40°42' W 074°00'2 2.5
2014-Dec-21 15:33N 40°41' W 074°02'2 1.9
2014-Dec-21 14:33N 40°42' W 074°00'2 0.1
2014-Dec-20 22:33N 40°44' W 074°01'3 3.0
2014-Dec-20 21:33N 40°41' W 074°03'2 2.1
2014-Dec-20 20:33N 40°42' W 074°00'0 0.0
2014-Dec-20 19:33N 40°42' W 074°00'1 1.3
2014-Dec-20 18:33N 40°41' W 074°02'1 1.3
2014-Dec-20 17:33N 40°42' W 074°00'0 0.0
2014-Dec-20 16:33N 40°42' W 074°00'2 2.0
2014-Dec-20 15:33N 40°41' W 074°02'2 1.8
2014-Dec-20 14:33N 40°42' W 074°00'2 0.2
2014-Dec-20 05:33N 40°44' W 074°01'2 1.6
2014-Dec-20 04:33N 40°42' W 073°60'2 2.3
2014-Dec-20 03:33N 40°45' W 074°01'4 3.7
2014-Dec-20 02:33N 40°41' W 074°03'2 2.2
2014-Dec-20 01:33N 40°42' W 074°00'1 0.6
2014-Dec-20 00:33N 40°42' W 074°00'2 1.7
2014-Dec-19 23:33N 40°41' W 074°03'2 2.1
2014-Dec-19 22:33N 40°42' W 074°00'2 1.8
2014-Dec-19 21:33N 40°41' W 074°02'2 1.8
2014-Dec-19 20:33N 40°42' W 074°00'0 0.0
2014-Dec-19 19:33N 40°42' W 074°00'1 0.8
2014-Dec-19 18:33N 40°42' W 074°01'1 0.8
2014-Dec-19 17:33N 40°42' W 074°00'0 0.0
2014-Dec-19 16:33N 40°42' W 074°00'2 1.8
2014-Dec-19 15:33N 40°41' W 074°02'2 1.8
2014-Dec-19 14:33N 40°42' W 074°00'2 0.1
2014-Dec-18 22:33N 40°44' W 074°01'3 2.6
2014-Dec-18 21:33N 40°41' W 074°02'2 1.6
2014-Dec-18 20:33N 40°42' W 074°00'0 0.0
2014-Dec-18 19:33N 40°42' W 074°00'2 1.7
2014-Dec-18 18:33N 40°41' W 074°02'2 1.8
2014-Dec-18 17:33N 40°42' W 074°00'0 0.0
2014-Dec-18 16:33N 40°42' W 074°00'2 1.6
2014-Dec-18 15:33N 40°41' W 074°02'2 1.6
2014-Dec-18 14:33N 40°42' W 074°00'2 0.1
2014-Dec-17 22:33N 40°44' W 074°01'3 2.9
2014-Dec-17 21:33N 40°41' W 074°03'2 2.0
2014-Dec-17 20:34N 40°42' W 074°00'0 0.0
2014-Dec-17 19:33N 40°42' W 074°00'1 1.4
2014-Dec-17 18:33N 40°42' W 074°02'1 1.3
2014-Dec-17 17:33N 40°42' W 074°00'0 0.0
2014-Dec-17 16:34N 40°42' W 074°00'2 1.9
2014-Dec-17 15:34N 40°41' W 074°02'2 1.7
2014-Dec-17 14:33N 40°42' W 074°00'2 1.8
2014-Dec-17 13:34N 40°44' W 074°01'0 0.0
2014-Dec-16 22:33N 40°44' W 074°01'3 2.9
2014-Dec-16 21:34N 40°41' W 074°03'2 2.1
2014-Dec-16 20:34N 40°42' W 074°00'0 0.0
2014-Dec-16 19:34N 40°42' W 074°00'2 1.9
2014-Dec-16 18:33N 40°41' W 074°02'2 2.0
2014-Dec-16 17:34N 40°42' W 074°00'0 0.0
2014-Dec-16 16:34N 40°42' W 074°00'2 1.8
2014-Dec-16 15:34N 40°41' W 074°02'2 1.8
2014-Dec-16 14:33N 40°42' W 074°00'2 0.1
2014-Dec-15 22:33N 40°44' W 074°01'3 2.6
2014-Dec-15 21:33N 40°41' W 074°02'2 1.6
2014-Dec-15 20:33N 40°42' W 074°00'0 0.0
2014-Dec-15 19:33N 40°42' W 074°00'2 2.1
2014-Dec-15 18:33N 40°41' W 074°03'2 2.1
2014-Dec-15 17:33N 40°42' W 074°00'0 0.0
2014-Dec-15 16:33N 40°42' W 074°00'1 1.0
2014-Dec-15 15:33N 40°42' W 074°01'1 1.0
2014-Dec-15 14:33N 40°42' W 074°00'2 1.6
2014-Dec-15 13:33N 40°44' W 074°01'0 0.0
2014-Dec-14 22:33N 40°44' W 074°01'2 2.5
2014-Dec-14 21:33N 40°41' W 074°02'1 1.4
2014-Dec-14 20:33N 40°42' W 074°00'0 0.0
2014-Dec-14 19:33N 40°42' W 074°00'2 1.7
2014-Dec-14 18:33N 40°41' W 074°02'2 1.7
2014-Dec-14 17:33N 40°42' W 074°00'0 0.0
2014-Dec-14 16:33N 40°42' W 074°00'2 2.0
2014-Dec-14 15:33N 40°41' W 074°03'2 2.0
2014-Dec-14 14:33N 40°42' W 074°00'2 0.2
2014-Dec-14 05:33N 40°44' W 074°01'2 1.6
2014-Dec-14 04:33N 40°42' W 073°60'3 3.2
2014-Dec-14 03:33N 40°46' W 074°01'5 4.7
2014-Dec-14 02:33N 40°41' W 074°03'2 2.2
2014-Dec-14 01:33N 40°42' W 074°00'1 0.6
2014-Dec-14 00:33N 40°42' W 073°60'3 2.8
2014-Dec-13 23:33N 40°41' W 074°03'2 2.2
2014-Dec-13 22:33N 40°42' W 074°00'1 1.3
2014-Dec-13 21:33N 40°42' W 074°02'1 1.3
2014-Dec-13 20:32N 40°42' W 074°00'0 0.0
2014-Dec-13 19:33N 40°42' W 074°00'2 2.1
2014-Dec-13 18:34N 40°41' W 074°03'2 2.1
2014-Dec-13 17:33N 40°42' W 074°00'0 0.0
2014-Dec-13 16:33N 40°42' W 074°00'2 2.1
2014-Dec-13 15:33N 40°41' W 074°02'2 2.1
2014-Dec-13 14:34N 40°42' W 074°00'  

Dump ship's entire track history